Time;durP1;ratioP1;P1;durP2;ratioP2;P2;SDS_P1;SDS_P2;PMS_P1;PMS_P2;Temp;Humidity;BMP_temperature;BMP_pressure;BME280_temperature;BME280_humidity;BME280_pressure;Samples;Min_cycle;Max_cycle;Signal;HPM_P1;HPM_P2
2022/10/22 00:01:26;;;;;;;;;;;;;;;10.95;100.00;100802.72;4966384;28;19934;-74
2022/10/22 00:03:51;;;;;;;;;;;;;;;10.98;100.00;100802.59;4966421;28;19930;-74
2022/10/22 00:06:16;;;;;;;;;;;;;;;11.00;100.00;100800.72;4966525;28;20510;-74
2022/10/22 00:08:42;;;;;;;;;;;;;;;11.00;100.00;100803.38;4967410;28;19921;-74
2022/10/22 00:11:14;;;;;;;;;;;;;;;11.04;100.00;100800.56;4971144;28;20285;-74
2022/10/22 00:13:40;;;;;;;;;;;;;;;11.05;100.00;100808.44;4969682;28;19933;-74
2022/10/22 00:16:05;;;;;;;;;;;;;;;11.05;100.00;100803.16;4951206;28;20015;-74
2022/10/22 00:18:31;;;;;;;;;;;;;;;11.07;100.00;100811.03;4970196;28;20151;-74
2022/10/22 00:20:56;;;;;;;;;;;;;;;11.07;100.00;100805.72;4970424;28;20309;-74
2022/10/22 00:23:21;;;;;;;;;;;;;;;11.06;100.00;100804.03;4970961;28;19937;-74
2022/10/22 00:25:47;;;;;;;;;;;;;;;11.05;100.00;100812.91;4967837;28;20549;-74
2022/10/22 00:28:13;;;;;;;;;;;;;;;11.05;100.00;100810.25;4968849;28;19926;-74
2022/10/22 00:30:39;;;;;;;;;;;;;;;11.04;100.00;100811.16;4967302;28;20016;-74
2022/10/22 00:33:04;;;;;;;;;;;;;;;11.02;100.00;100813.91;4971312;28;20405;-74
2022/10/22 00:35:29;;;;;;;;;;;;;;;11.00;100.00;100810.44;4973833;28;20580;-74
2022/10/22 00:37:55;;;;;;;;;;;;;;;11.01;100.00;100814.84;4969901;28;19934;-74
2022/10/22 00:40:20;;;;;;;;;;;;;;;11.00;100.00;100806.03;4967544;28;20015;-74
2022/10/22 00:42:46;;;;;;;;;;;;;;;10.99;100.00;100814.91;4922084;28;21433;-74
2022/10/22 00:45:11;;;;;;;;;;;;;;;10.99;100.00;100809.63;4968510;28;20198;-74
2022/10/22 00:47:55;;;;;;;;;;;;;;;10.96;100.00;100809.75;4968919;28;19929;-74
2022/10/22 00:50:22;;;;;;;;;;;;;;;10.94;100.00;100822.22;4970892;28;20025;-74
2022/10/22 00:52:48;;;;;;;;;;;;;;;10.92;100.00;100821.44;4965757;28;19992;-74
2022/10/22 00:55:14;;;;;;;;;;;;;;;10.91;100.00;100817.06;4968864;28;20473;-74
2022/10/22 00:57:39;;;;;;;;;;;;;;;10.90;100.00;100825.91;4939034;28;19948;-74
2022/10/22 01:00:05;;;;;;;;;;;;;;;10.90;100.00;100814.50;4950542;28;19972;-74
2022/10/22 01:02:30;;;;;;;;;;;;;;;10.89;100.00;100816.25;4964770;28;19929;-74
2022/10/22 01:04:56;;;;;;;;;;;;;;;10.89;100.00;100813.63;4968362;28;19931;-74
2022/10/22 01:07:21;;;;;;;;;;;;;;;10.88;100.00;100819.84;4971020;28;19934;-74
2022/10/22 01:10:02;;;;;;;;;;;;;;;10.87;100.00;100823.44;4952089;28;19929;-74
2022/10/22 01:12:38;;;;;;;;;;;;;;;10.86;100.00;100827.84;4951581;28;20929;-74
2022/10/22 01:15:22;;;;;;;;;;;;;;;10.89;100.00;100828.66;4965706;28;20235;-74
2022/10/22 01:17:58;;;;;;;;;;;;;;;10.90;100.00;100825.91;4968025;28;20365;-74
2022/10/22 01:20:27;;;;;;;;;;;;;;;10.92;100.00;100824.09;4968754;28;21317;-74
2022/10/22 01:23:05;;;;;;;;;;;;;;;10.95;100.00;100823.91;4966169;28;19930;-74
2022/10/22 01:25:33;;;;;;;;;;;;;;;10.99;100.00;100821.97;4966032;28;19945;-74
2022/10/22 01:28:37;;;;;;;;;;;;;;;11.02;100.00;100834.22;4970488;28;20665;-74
2022/10/22 01:31:02;;;;;;;;;;;;;;;11.06;100.00;100825.22;4902687;29;19931;-74
2022/10/22 01:33:27;;;;;;;;;;;;;;;11.08;100.00;100828.63;4889684;29;19931;-74
2022/10/22 01:35:53;;;;;;;;;;;;;;;11.12;100.00;100828.41;4923263;28;20051;-74
2022/10/22 01:38:19;;;;;;;;;;;;;;;11.16;100.00;100815.03;4968860;28;19929;-74
2022/10/22 01:40:45;;;;;;;;;;;;;;;11.21;100.00;100813.00;4935042;28;20085;-74
2022/10/22 01:43:10;;;;;;;;;;;;;;;11.25;100.00;100815.44;4951488;28;19930;-74
2022/10/22 01:45:43;;;;;;;;;;;;;;;11.30;100.00;100809.03;4963680;28;19929;-74
2022/10/22 01:48:20;;;;;;;;;;;;;;;11.32;100.00;100815.16;4965442;28;20384;-74
2022/10/22 01:51:04;;;;;;;;;;;;;;;11.36;100.00;100814.03;4968144;28;19937;-74
2022/10/22 01:54:01;;;;;;;;;;;;;;;11.41;100.00;100806.72;4968684;28;19933;-74
2022/10/22 01:56:29;;;;;;;;;;;;;;;11.45;100.00;100812.75;4935410;28;19937;-74
2022/10/22 01:58:59;;;;;;;;;;;;;;;11.49;100.00;100809.84;4970519;28;19926;-74
2022/10/22 02:01:26;;;;;;;;;;;;;;;11.53;100.00;100813.22;4967474;28;19926;-74
2022/10/22 02:03:55;;;;;;;;;;;;;;;11.55;100.00;100812.19;4964302;28;19968;-74
2022/10/22 02:06:21;;;;;;;;;;;;;;;11.59;100.00;100807.59;4968472;28;19929;-74
2022/10/22 02:08:46;;;;;;;;;;;;;;;11.62;100.00;100811.91;4963996;28;20433;-74
2022/10/22 02:11:12;;;;;;;;;;;;;;;11.65;100.00;100811.72;4965626;28;20056;-74
2022/10/22 02:13:42;;;;;;;;;;;;;;;11.67;100.00;100809.88;4965401;28;19930;-74
2022/10/22 02:16:08;;;;;;;;;;;;;;;11.69;100.00;100808.00;4965235;28;19933;-74
2022/10/22 02:18:34;;;;;;;;;;;;;;;11.69;100.00;100805.34;4969801;28;19926;-74
2022/10/22 02:21:00;;;;;;;;;;;;;;;11.69;100.00;100797.38;4965326;28;19930;-74
2022/10/22 02:23:26;;;;;;;;;;;;;;;11.70;100.00;100799.09;4965112;28;19934;-74
2022/10/22 02:25:53;;;;;;;;;;;;;;;11.69;100.00;100802.69;4966011;28;19933;-74
2022/10/22 02:28:38;;;;;;;;;;;;;;;11.70;100.00;100809.72;4985277;28;20020;-74
2022/10/22 02:31:09;;;;;;;;;;;;;;;11.72;100.00;100802.53;4968632;28;19932;-74
2022/10/22 02:33:40;;;;;;;;;;;;;;;11.74;100.00;100807.75;4966863;28;19937;-74
2022/10/22 02:36:05;;;;;;;;;;;;;;;11.74;100.00;100805.97;4963922;28;19963;-73
2022/10/22 02:38:31;;;;;;;;;;;;;;;11.75;100.00;100807.69;4964880;28;20010;-74
2022/10/22 02:40:56;;;;;;;;;;;;;;;11.76;100.00;100809.41;4970067;28;20657;-74
2022/10/22 02:43:23;;;;;;;;;;;;;;;11.78;100.00;100809.34;4964650;28;20796;-74
2022/10/22 02:45:48;;;;;;;;;;;;;;;11.79;100.00;100803.09;4969770;28;19929;-74
2022/10/22 02:48:13;;;;;;;;;;;;;;;11.80;100.00;100795.06;4964015;28;20293;-74
2022/10/22 02:50:39;;;;;;;;;;;;;;;11.82;100.00;100802.91;4969869;28;19953;-74
2022/10/22 02:53:04;;;;;;;;;;;;;;;11.82;100.00;100792.31;4970162;28;20234;-74
2022/10/22 02:55:30;;;;;;;;;;;;;;;11.82;100.00;100787.88;4969932;28;19933;-74
2022/10/22 02:57:55;;;;;;;;;;;;;;;11.84;100.00;100794.88;4970067;28;19938;-74
2022/10/22 03:00:21;;;;;;;;;;;;;;;11.84;100.00;100789.59;4969806;28;19929;-74
2022/10/22 03:02:46;;;;;;;;;;;;;;;11.84;100.00;100790.44;4970161;28;20475;-74
2022/10/22 03:05:11;;;;;;;;;;;;;;;11.84;100.00;100793.09;4970367;28;19926;-74
2022/10/22 03:07:37;;;;;;;;;;;;;;;11.84;100.00;100790.44;4969703;28;19926;-74
2022/10/22 03:10:02;;;;;;;;;;;;;;;11.85;100.00;100788.63;4969948;28;20408;-74
2022/10/22 03:12:28;;;;;;;;;;;;;;;11.85;100.00;100791.28;4969222;28;20423;-74
2022/10/22 03:14:53;;;;;;;;;;;;;;;11.85;100.00;100799.25;4969368;28;20040;-74
2022/10/22 03:17:19;;;;;;;;;;;;;;;11.85;100.00;100796.59;4963474;28;19930;-74
2022/10/22 03:19:44;;;;;;;;;;;;;;;11.84;100.00;100795.75;4954537;28;19972;-74
2022/10/22 03:22:30;;;;;;;;;;;;;;;11.85;100.00;100802.78;4969997;28;20016;-74
2022/10/22 03:24:57;;;;;;;;;;;;;;;11.86;100.00;100800.97;4967214;28;20473;-74
2022/10/22 03:27:23;;;;;;;;;;;;;;;11.86;100.00;100801.84;4969572;28;19926;-74
2022/10/22 03:29:49;;;;;;;;;;;;;;;11.86;100.00;100808.91;4969025;28;20281;-74
2022/10/22 03:32:14;;;;;;;;;;;;;;;11.85;100.00;100808.06;4966030;28;19925;-74
2022/10/22 03:34:39;;;;;;;;;;;;;;;11.85;100.00;100800.13;4969901;28;19941;-74
2022/10/22 03:37:05;;;;;;;;;;;;;;;11.83;100.00;100796.69;4969260;28;19972;-74
2022/10/22 03:39:31;;;;;;;;;;;;;;;11.82;100.00;100798.47;4969098;28;20106;-74
2022/10/22 03:41:56;;;;;;;;;;;;;;;11.81;100.00;100791.47;4964328;28;19925;-74
2022/10/22 03:44:21;;;;;;;;;;;;;;;11.82;100.00;100802.91;4966767;28;19930;-74
2022/10/22 03:46:47;;;;;;;;;;;;;;;11.80;100.00;100800.34;4968614;28;19934;-74
2022/10/22 03:49:12;;;;;;;;;;;;;;;11.80;100.00;100808.31;4973260;28;19992;-74
2022/10/22 03:51:37;;;;;;;;;;;;;;;11.80;100.00;100804.78;4972800;28;20064;-74
2022/10/22 03:54:03;;;;;;;;;;;;;;;11.78;100.00;100807.50;4973006;28;20392;-74
2022/10/22 03:56:28;;;;;;;;;;;;;;;11.76;100.00;100809.41;4967449;28;19972;-74
2022/10/22 03:58:55;;;;;;;;;;;;;;;11.76;100.00;100809.41;4973508;28;19933;-74
2022/10/22 04:01:20;;;;;;;;;;;;;;;11.74;100.00;100821.03;4973018;28;19929;-74
2022/10/22 04:03:45;;;;;;;;;;;;;;;11.73;100.00;100814.88;4973055;28;20443;-74
2022/10/22 04:06:11;;;;;;;;;;;;;;;11.71;100.00;100829.97;4956990;28;19930;-74
2022/10/22 04:08:41;;;;;;;;;;;;;;;11.69;100.00;100826.56;4967936;28;19936;-74
2022/10/22 04:11:06;;;;;;;;;;;;;;;11.66;100.00;100824.91;4967788;28;19936;-74
2022/10/22 04:13:31;;;;;;;;;;;;;;;11.65;100.00;100832.94;4969439;28;20732;-74
2022/10/22 04:16:16;;;;;;;;;;;;;;;11.64;100.00;100832.09;4972623;28;20500;-74
2022/10/22 04:18:42;;;;;;;;;;;;;;;11.62;100.00;100831.34;4972964;28;19933;-74
2022/10/22 04:21:08;;;;;;;;;;;;;;;11.63;100.00;100834.81;4972451;28;19930;-74
2022/10/22 04:23:33;;;;;;;;;;;;;;;11.62;100.00;100828.69;4973019;28;19934;-74
2022/10/22 04:25:59;;;;;;;;;;;;;;;11.63;100.00;100834.81;4971931;28;20077;-74
2022/10/22 04:28:25;;;;;;;;;;;;;;;11.62;100.00;100833.13;4972879;28;20494;-74
2022/10/22 04:30:50;;;;;;;;;;;;;;;11.61;100.00;100842.00;4971734;28;19925;-74
2022/10/22 04:33:15;;;;;;;;;;;;;;;11.61;100.00;100836.69;4972364;28;19930;-74
2022/10/22 04:35:41;;;;;;;;;;;;;;;11.60;100.00;100838.47;4972463;28;20544;-74
2022/10/22 04:38:06;;;;;;;;;;;;;;;11.61;100.00;100836.69;4970869;28;19930;-74
2022/10/22 04:40:32;;;;;;;;;;;;;;;11.60;100.00;100835.84;4972055;28;20416;-74
2022/10/22 04:42:57;;;;;;;;;;;;;;;11.60;100.00;100835.00;4955123;28;20374;-74
2022/10/22 04:45:23;;;;;;;;;;;;;;;11.59;100.00;100838.59;4938963;28;20231;-74
2022/10/22 04:47:48;;;;;;;;;;;;;;;11.58;100.00;100837.72;4972356;28;19930;-74
2022/10/22 04:50:13;;;;;;;;;;;;;;;11.57;100.00;100836.00;4954672;28;19934;-74
2022/10/22 04:52:39;;;;;;;;;;;;;;;11.57;100.00;100840.44;4972310;28;19934;-74
2022/10/22 04:55:04;;;;;;;;;;;;;;;11.57;100.00;100843.06;4970626;28;20631;-74
2022/10/22 04:57:30;;;;;;;;;;;;;;;11.55;100.00;100844.03;4971217;28;19940;-74
2022/10/22 04:59:55;;;;;;;;;;;;;;;11.55;100.00;100844.03;4938481;28;19980;-74
2022/10/22 05:02:21;;;;;;;;;;;;;;;11.55;100.00;100844.03;4951169;28;19929;-74
2022/10/22 05:04:46;;;;;;;;;;;;;;;11.55;100.00;100849.31;4972296;28;20429;-74
2022/10/22 05:07:11;;;;;;;;;;;;;;;11.55;100.00;100849.31;4970344;28;20549;-74
2022/10/22 05:09:37;;;;;;;;;;;;;;;11.55;100.00;100846.66;4937010;28;19929;-74
2022/10/22 05:12:02;;;;;;;;;;;;;;;11.57;100.00;100848.38;4950609;28;20872;-74
2022/10/22 05:14:28;;;;;;;;;;;;;;;11.55;100.00;100851.97;4972285;28;20032;-74
2022/10/22 05:16:53;;;;;;;;;;;;;;;11.55;100.00;100851.97;4971727;28;19968;-74
2022/10/22 05:19:18;;;;;;;;;;;;;;;11.54;100.00;100841.44;4972120;28;20498;-74
2022/10/22 05:21:44;;;;;;;;;;;;;;;11.52;100.00;100843.31;4971047;28;20480;-74
2022/10/22 05:24:09;;;;;;;;;;;;;;;11.50;100.00;100839.88;4948305;28;20478;-74
2022/10/22 05:26:35;;;;;;;;;;;;;;;11.47;100.00;100847.97;4968954;28;19933;-74
2022/10/22 05:29:00;;;;;;;;;;;;;;;11.46;100.00;100846.25;4970714;28;19937;-74
2022/10/22 05:31:27;;;;;;;;;;;;;;;11.43;100.00;100849.91;4962592;28;20342;-74
2022/10/22 05:33:53;;;;;;;;;;;;;;;11.41;100.00;100846.50;4969661;28;19936;-74
2022/10/22 05:36:19;;;;;;;;;;;;;;;11.38;100.00;100842.19;4970434;28;19934;-74
2022/10/22 05:38:44;;;;;;;;;;;;;;;11.38;100.00;100843.97;4969439;28;19925;-75
2022/10/22 05:41:14;;;;;;;;;;;;;;;11.37;100.00;100842.25;4965454;28;19928;-74
2022/10/22 05:43:39;;;;;;;;;;;;;;;11.36;100.00;100845.84;4964270;28;19930;-74
2022/10/22 05:46:08;;;;;;;;;;;;;;;11.37;100.00;100843.13;4967143;28;19968;-74
2022/10/22 05:48:34;;;;;;;;;;;;;;;11.37;100.00;100855.53;4970511;28;19952;-74
2022/10/22 05:51:04;;;;;;;;;;;;;;;11.37;100.00;100845.78;4969801;28;20381;-74
2022/10/22 05:53:32;;;;;;;;;;;;;;;11.38;100.00;100850.16;4964876;28;20032;-74
2022/10/22 05:55:59;;;;;;;;;;;;;;;11.39;100.00;100853.69;4966243;28;19926;-74
2022/10/22 05:58:24;;;;;;;;;;;;;;;11.39;100.00;100851.03;4970799;28;19965;-74
2022/10/22 06:00:49;;;;;;;;;;;;;;;11.38;100.00;100852.81;4953833;28;20377;-74
2022/10/22 06:03:15;;;;;;;;;;;;;;;11.40;100.00;100855.38;4970451;28;19933;-74
2022/10/22 06:05:40;;;;;;;;;;;;;;;11.39;100.00;100854.50;4970568;28;20052;-74
2022/10/22 06:08:05;;;;;;;;;;;;;;;11.40;100.00;100860.69;4970084;28;19967;-74
2022/10/22 06:10:31;;;;;;;;;;;;;;;11.39;100.00;100851.88;4970321;28;19993;-74
2022/10/22 06:12:56;;;;;;;;;;;;;;;11.41;100.00;100859.75;4969838;28;20175;-74
2022/10/22 06:15:22;;;;;;;;;;;;;;;11.41;100.00;100867.69;4970396;28;19934;-74
2022/10/22 06:17:47;;;;;;;;;;;;;;;11.43;100.00;100862.34;4966747;28;19933;-74
2022/10/22 06:20:13;;;;;;;;;;;;;;;11.42;100.00;100864.13;4970557;28;19934;-74
2022/10/22 06:22:38;;;;;;;;;;;;;;;11.43;100.00;100859.69;4965082;28;21495;-74
2022/10/22 06:25:04;;;;;;;;;;;;;;;11.43;100.00;100863.19;4963999;28;20317;-74
2022/10/22 06:27:30;;;;;;;;;;;;;;;11.44;100.00;100867.53;4969987;28;19981;-74
2022/10/22 06:29:55;;;;;;;;;;;;;;;11.43;100.00;100871.13;4974604;28;20567;-74
2022/10/22 06:32:21;;;;;;;;;;;;;;;11.42;100.00;100877.38;4969810;28;19930;-74
2022/10/22 06:34:47;;;;;;;;;;;;;;;11.41;100.00;100883.59;4970177;28;19937;-74
2022/10/22 06:37:14;;;;;;;;;;;;;;;11.41;100.00;100883.59;4966766;28;19930;-75
2022/10/22 06:39:39;;;;;;;;;;;;;;;11.43;100.00;100891.50;4965330;28;20337;-74
2022/10/22 06:42:05;;;;;;;;;;;;;;;11.41;100.00;100894.22;4964742;28;19930;-74
2022/10/22 06:44:30;;;;;;;;;;;;;;;11.42;100.00;100901.22;4954259;28;19933;-74
2022/10/22 06:46:56;;;;;;;;;;;;;;;11.43;100.00;100902.09;4969620;28;19942;-74
2022/10/22 06:49:21;;;;;;;;;;;;;;;11.46;100.00;100915.19;4968924;28;20714;-74
2022/10/22 06:51:50;;;;;;;;;;;;;;;11.46;100.00;100916.06;4969720;28;19963;-74
2022/10/22 06:54:15;;;;;;;;;;;;;;;11.47;100.00;100920.44;4964377;28;20624;-74
2022/10/22 06:56:41;;;;;;;;;;;;;;;11.49;100.00;100915.06;4968056;28;19934;-74
2022/10/22 06:59:06;;;;;;;;;;;;;;;11.51;100.00;100921.97;4969773;28;19934;-74
2022/10/22 07:01:32;;;;;;;;;;;;;;;11.52;100.00;100923.72;4969345;28;20024;-74
2022/10/22 07:03:58;;;;;;;;;;;;;;;11.54;100.00;100923.63;4964288;28;20428;-74
2022/10/22 07:06:23;;;;;;;;;;;;;;;11.54;100.00;100913.03;4966292;28;19926;-74
2022/10/22 07:08:49;;;;;;;;;;;;;;;11.55;100.00;100920.03;4963354;28;19995;-74
2022/10/22 07:11:15;;;;;;;;;;;;;;;11.57;100.00;100919.97;4966021;28;19925;-79
2022/10/22 07:13:41;;;;;;;;;;;;;;;11.56;100.00;100919.13;4964851;28;19925;-75
2022/10/22 07:16:07;;;;;;;;;;;;;;;11.59;100.00;100936.69;4962993;28;19930;-74
2022/10/22 07:18:33;;;;;;;;;;;;;;;11.59;100.00;100936.69;4962241;28;19926;-74
2022/10/22 07:20:58;;;;;;;;;;;;;;;11.61;100.00;100927.69;4969763;28;19980;-75
2022/10/22 07:23:24;;;;;;;;;;;;;;;11.63;100.00;100944.41;4965098;28;19940;-74
2022/10/22 07:25:49;;;;;;;;;;;;;;;11.64;100.00;100940.81;4969125;28;19939;-74
2022/10/22 07:28:15;;;;;;;;;;;;;;;11.66;100.00;100943.41;4948087;28;19930;-74
2022/10/22 07:30:40;;;;;;;;;;;;;;;11.68;100.00;100942.38;4951518;28;19940;-75
2022/10/22 07:33:05;;;;;;;;;;;;;;;11.72;100.00;100947.53;4967996;28;20290;-74
2022/10/22 07:35:31;;;;;;;;;;;;;;;11.74;100.00;100954.50;4969260;28;19934;-74
2022/10/22 07:37:56;;;;;;;;;;;;;;;11.79;100.00;100957.78;4969272;28;19980;-73
2022/10/22 07:40:22;;;;;;;;;;;;;;;11.84;100.00;100957.56;4969465;28;19937;-74
2022/10/22 07:42:47;;;;;;;;;;;;;;;11.89;100.00;100954.69;4969284;28;19926;-74
2022/10/22 07:45:13;;;;;;;;;;;;;;;11.95;100.00;100957.03;4947945;28;19941;-74
2022/10/22 07:47:39;;;;;;;;;;;;;;;12.01;100.00;100961.16;4969357;28;20262;-73
2022/10/22 07:50:06;;;;;;;;;;;;;;;12.05;100.00;100962.78;4949868;28;20054;-74
2022/10/22 07:52:32;;;;;;;;;;;;;;;12.09;100.00;100967.84;4968349;28;21616;-74
2022/10/22 07:54:57;;;;;;;;;;;;;;;12.13;100.00;100963.25;4934996;28;20004;-74
2022/10/22 07:57:22;;;;;;;;;;;;;;;12.18;100.00;100968.31;4966361;28;20614;-74
2022/10/22 07:59:48;;;;;;;;;;;;;;;12.24;100.00;100975.13;4966925;28;20041;-74
2022/10/22 08:02:13;;;;;;;;;;;;;;;12.30;100.00;100973.00;4967557;28;20562;-74
2022/10/22 08:04:39;;;;;;;;;;;;;;;12.38;100.00;100974.41;4946556;28;19930;-74
2022/10/22 08:07:04;;;;;;;;;;;;;;;12.44;100.00;100979.41;4951432;28;20417;-74
2022/10/22 08:09:30;;;;;;;;;;;;;;;12.50;100.00;100979.94;4968819;28;19936;-74
2022/10/22 08:11:55;;;;;;;;;;;;;;;12.57;100.00;100984.94;4936033;28;19973;-74
2022/10/22 08:14:21;;;;;;;;;;;;;;;12.62;100.00;100983.78;4946171;28;19992;-74
2022/10/22 08:16:46;;;;;;;;;;;;;;;12.70;100.00;100990.50;4945431;28;20474;-73
2022/10/22 08:19:12;;;;;;;;;;;;;;;12.76;100.00;100990.19;4968865;28;20533;-73
2022/10/22 08:21:38;;;;;;;;;;;;;;;12.83;100.00;100994.22;4948841;28;19937;-73
2022/10/22 08:24:04;;;;;;;;;;;;;;;12.92;100.00;100989.34;4968911;28;20293;-73
2022/10/22 08:26:29;;;;;;;;;;;;;;;12.97;100.00;100988.16;4962082;28;19926;-73
2022/10/22 08:28:55;;;;;;;;;;;;;;;13.04;100.00;100994.88;4969059;28;20016;-73
2022/10/22 08:31:20;;;;;;;;;;;;;;;13.12;100.00;100999.78;4969990;28;19969;-74
2022/10/22 08:33:46;;;;;;;;;;;;;;;13.20;100.00;101003.81;4971666;28;19926;-73
2022/10/22 08:36:11;;;;;;;;;;;;;;;13.25;100.00;101005.28;4971131;28;19932;-74
2022/10/22 08:38:36;;;;;;;;;;;;;;;13.30;100.00;101007.72;4969096;28;20015;-74
2022/10/22 08:41:05;;;;;;;;;;;;;;;13.36;100.00;101004.72;4971886;28;19964;-74
2022/10/22 08:43:36;;;;;;;;;;;;;;;13.42;100.00;101007.03;4969262;28;19929;-73
2022/10/22 08:46:05;;;;;;;;;;;;;;;13.48;100.00;101007.66;4972591;28;20388;-74
2022/10/22 08:48:41;;;;;;;;;;;;;;;13.55;100.00;101014.34;4987330;28;19926;-74
2022/10/22 08:51:07;;;;;;;;;;;;;;;13.59;100.00;101018.56;4970162;28;19956;-74
2022/10/22 08:53:36;;;;;;;;;;;;;;;13.64;100.00;101013.00;4966992;28;19957;-74
2022/10/22 08:56:01;;;;;;;;;;;;;;;13.68;100.00;101015.41;4965657;28;19929;-73
2022/10/22 08:58:33;;;;;;;;;;;;;;;13.73;100.00;101022.28;4974145;28;20415;-74
2022/10/22 09:00:59;;;;;;;;;;;;;;;13.77;100.00;101019.34;4970685;28;19930;-74
2022/10/22 09:03:37;;;;;;;;;;;;;;;13.80;100.00;101019.19;4964268;28;19929;-77
2022/10/22 09:06:15;;;;;;;;;;;;;;;13.83;100.00;101019.00;4949016;28;20016;-77
2022/10/22 09:08:41;;;;;;;;;;;;;;;13.87;100.00;101022.34;4968169;28;20069;-73
2022/10/22 09:11:10;;;;;;;;;;;;;;;13.90;100.00;101032.81;4966781;28;19969;-73
2022/10/22 09:13:35;;;;;;;;;;;;;;;13.93;100.00;101021.13;4965586;28;19929;-79
2022/10/22 09:16:10;;;;;;;;;;;;;;;13.95;100.00;101025.44;4966072;28;19972;-79
2022/10/22 09:18:39;;;;;;;;;;;;;;;13.96;100.00;101023.63;4966661;28;20804;-79
2022/10/22 09:21:09;;;;;;;;;;;;;;;13.97;100.00;101046.66;4966459;28;20433;-78
2022/10/22 09:23:49;;;;;;;;;;;;;;;13.97;100.00;101036.88;4985015;28;20491;-77
2022/10/22 09:26:15;;;;;;;;;;;;;;;13.98;100.00;101033.25;4966993;28;19968;-77
2022/10/22 09:28:40;;;;;;;;;;;;;;;13.99;100.00;101034.09;4969394;28;19996;-80
2022/10/22 09:31:12;;;;;;;;;;;;;;;14.02;100.00;101039.25;4970456;28;19926;-81
2022/10/22 09:33:38;;;;;;;;;;;;;;;14.03;100.00;101040.09;4966880;28;19929;-78
2022/10/22 09:36:06;;;;;;;;;;;;;;;14.05;100.00;101032.91;4966233;28;19936;-80
2022/10/22 09:38:52;;;;;;;;;;;;;;;14.07;100.00;101046.97;4951836;28;20064;-81
2022/10/22 09:41:18;;;;;;;;;;;;;;;14.08;100.00;101049.56;4971397;28;20293;-79
2022/10/22 09:43:47;;;;;;;;;;;;;;;14.12;100.00;101042.25;4969653;28;19926;-79
2022/10/22 09:46:16;;;;;;;;;;;;;;;14.16;100.00;101050.94;4970555;28;20314;-79
2022/10/22 09:48:43;;;;;;;;;;;;;;;14.19;100.00;101050.72;4971579;28;19930;-78
2022/10/22 09:51:18;;;;;;;;;;;;;;;14.17;100.00;101061.47;4970830;28;19937;-79
2022/10/22 09:53:45;;;;;;;;;;;;;;;14.20;100.00;101065.75;4971645;28;19934;-78
2022/10/22 09:56:25;;;;;;;;;;;;;;;14.19;100.00;101064.03;4971719;28;19929;-78
2022/10/22 09:58:50;;;;;;;;;;;;;;;14.20;100.00;101063.97;4970962;28;20285;-78
2022/10/22 10:01:26;;;;;;;;;;;;;;;14.22;100.00;101063.88;4967055;28;20408;-79
2022/10/22 10:03:52;;;;;;;;;;;;;;;14.25;100.00;101077.88;4971024;28;20177;-78
2022/10/22 10:06:18;;;;;;;;;;;;;;;14.30;100.00;101074.06;4971494;28;20617;-79
2022/10/22 10:08:43;;;;;;;;;;;;;;;14.34;100.00;101075.63;4971622;28;20198;-78
2022/10/22 10:11:10;;;;;;;;;;;;;;;14.31;100.00;101089.97;4970205;28;19934;-78
2022/10/22 10:13:44;;;;;;;;;;;;;;;14.28;100.00;101089.28;4962467;28;19929;-78
2022/10/22 10:16:24;;;;;;;;;;;;;;;14.26;100.00;101100.91;4966474;28;20024;-78
2022/10/22 10:18:55;;;;;;;;;;;;;;;14.25;100.00;101106.31;4965229;28;20023;-81
2022/10/22 10:21:39;;;;;;;;;;;;;;;14.25;100.00;101103.63;4970471;28;20468;-74
2022/10/22 10:24:10;;;;;;;;;;;;;;;14.25;100.00;101101.84;4970828;28;19972;-75
2022/10/22 10:26:46;;;;;;;;;;;;;;;14.24;100.00;101102.78;4970238;28;19932;-74
2022/10/22 10:29:17;;;;;;;;;;;;;;;14.28;100.00;101102.59;4948565;28;20024;-78
2022/10/22 10:31:47;;;;;;;;;;;;;;;14.28;100.00;101106.16;4970290;28;19929;-74
2022/10/22 10:34:15;;;;;;;;;;;;;;;14.31;100.00;101113.06;4950167;28;19965;-73
2022/10/22 10:36:49;;;;;;;;;;;;;;;14.36;100.00;101114.53;4970939;28;19937;-73
2022/10/22 10:39:22;;;;;;;;;;;;;;;14.38;100.00;101107.31;4950518;28;20028;-73
2022/10/22 10:41:57;;;;;;;;;;;;;;;14.39;100.00;101108.19;4968732;28;19926;-74
2022/10/22 10:44:33;;;;;;;;;;;;;;;14.40;100.00;101107.25;4970449;28;19932;-74
2022/10/22 10:47:15;;;;;;;;;;;;;;;14.38;100.00;101106.44;4950075;28;20505;-74
2022/10/22 10:49:41;;;;;;;;;;;;;;;14.40;100.00;101113.41;4969003;28;19930;-75
2022/10/22 10:52:19;;;;;;;;;;;;;;;14.47;100.00;101115.72;4939193;28;19957;-73
2022/10/22 10:54:50;;;;;;;;;;;;;;;14.55;100.00;101112.63;4937987;28;19934;-73
2022/10/22 10:57:19;;;;;;;;;;;;;;;14.62;100.00;101113.97;4970069;28;20397;-74
2022/10/22 11:00:08;;;;;;;;;;;;;;;14.65;100.00;101125.31;4970332;28;19929;-74
2022/10/22 11:02:52;;;;;;;;;;;;;;;14.66;100.00;101132.34;4955977;28;19926;-77
2022/10/22 11:05:36;;;;;;;;;;;;;;;14.61;100.00;101137.09;4951306;28;19930;-76
2022/10/22 11:08:08;;;;;;;;;;;;;;;14.57;100.00;101138.22;4969682;28;19930;-74
2022/10/22 11:10:35;;;;;;;;;;;;;;;14.54;100.00;101141.06;4950494;28;20344;-74
2022/10/22 11:13:04;;;;;;;;;;;;;;;14.49;100.00;101149.31;4969831;28;19930;-74
2022/10/22 11:15:33;;;;;;;;;;;;;;;14.44;100.00;101159.38;4950457;28;19930;-74
2022/10/22 11:18:10;;;;;;;;;;;;;;;14.38;100.00;101157.06;4949443;28;20293;-74
2022/10/22 11:20:54;;;;;;;;;;;;;;;14.35;100.00;101168.75;4967993;28;19925;-74
2022/10/22 11:23:24;;;;;;;;;;;;;;;14.31;100.00;101164.53;4970247;28;19930;-74
2022/10/22 11:25:50;;;;;;;;;;;;;;;14.33;100.00;101151.16;4952946;28;20036;-74
2022/10/22 11:28:15;;;;;;;;;;;;;;;14.39;100.00;101158.78;4964412;28;19937;-74
2022/10/22 11:30:42;;;;;;;;;;;;;;;14.48;100.00;101162.72;4969188;28;19938;-74
2022/10/22 11:33:11;;;;;;;;;;;;;;;14.58;100.00;101157.72;4969649;28;20066;-74
2022/10/22 11:35:41;;;;;;;;;;;;;;;14.69;100.00;101165.97;4965014;28;20129;-74
2022/10/22 11:38:08;;;;;;;;;;;;;;;14.81;100.00;101167.09;4965244;28;19937;-74
2022/10/22 11:40:35;;;;;;;;;;;;;;;14.88;100.00;101164.94;4965470;28;19926;-74
2022/10/22 11:43:05;;;;;;;;;;;;;;;14.90;100.00;101165.69;4968408;28;20352;-74
2022/10/22 11:45:40;;;;;;;;;;;;;;;14.92;100.00;101171.78;4969689;28;19929;-75
2022/10/22 11:48:08;;;;;;;;;;;;;;;14.99;100.00;101172.28;4970285;28;20333;-74
2022/10/22 11:50:41;;;;;;;;;;;;;;;15.00;100.00;101174.88;4968897;28;19933;-75
2022/10/22 11:53:13;;;;;;;;;;;;;;;15.02;100.00;101180.97;4969844;28;19930;-75
2022/10/22 11:55:45;;;;;;;;;;;;;;;15.02;100.00;101180.09;4969176;28;19984;-74
2022/10/22 11:58:28;;;;;;;;;;;;;;;15.03;100.00;101179.19;4964440;28;19968;-75
2022/10/22 12:00:53;;;;;;;;;;;;;;;14.99;100.00;101181.13;4969600;28;19925;-75
2022/10/22 12:03:30;;;;;;;;;;;;;;;14.98;100.00;101176.75;4969628;28;19930;-75
2022/10/22 12:06:10;;;;;;;;;;;;;;;14.99;100.00;101183.81;4972072;28;19930;-75
2022/10/22 12:08:41;;;;;;;;;;;;;;;15.05;100.00;101180.78;4961249;28;19936;-74
2022/10/22 12:11:09;;;;;;;;;;;;;;;15.10;100.00;101185.00;4965176;28;19957;-75
2022/10/22 12:13:51;;;;;;;;;;;;;;;15.15;100.00;101177.59;4961575;28;19936;-75
2022/10/22 12:16:16;;;;;;;;;;;;;;;15.15;100.00;101175.75;4974696;28;19925;-76
2022/10/22 12:18:42;;;;;;;;;;;;;;;15.19;100.00;101181.75;4969197;28;20300;-76
2022/10/22 12:21:12;;;;;;;;;;;;;;;15.23;100.00;101177.97;4969835;28;19981;-74
2022/10/22 12:23:38;;;;;;;;;;;;;;;15.29;100.00;101184.75;4971679;28;19969;-81
2022/10/22 12:26:04;;;;;;;;;;;;;;;15.33;100.00;101175.63;4942749;28;20016;-80
2022/10/22 12:28:36;;;;;;;;;;;;;;;15.39;100.00;101183.25;4971713;28;19925;-80
2022/10/22 12:31:01;;;;;;;;;;;;;;;15.43;100.00;101179.44;4968556;28;19933;-80
2022/10/22 12:33:28;;;;;;;;;;;;;;;15.46;100.00;101186.38;4972588;28;20340;-78